Time;durP1;ratioP1;P1;durP2;ratioP2;P2;SDS_P1;SDS_P2;PMS_P1;PMS_P2;Temp;Humidity;BMP_temperature;BMP_pressure;BME280_temperature;BME280_humidity;BME280_pressure;Samples;Min_cycle;Max_cycle;Signal;HPM_P1;HPM_P2
2022/09/14 00:01:56;;;;;;;;;;;20.30;99.90;;;;;;5093872;28;20002;-75
2022/09/14 00:04:22;;;;;;;;;;;20.20;99.90;;;;;;5093707;28;19908;-77
2022/09/14 00:06:48;;;;;;;;;;;20.10;99.90;;;;;;5093680;28;19908;-76
2022/09/14 00:09:18;;;;;;;;;;;20.00;99.90;;;;;;5093664;28;19938;-76
2022/09/14 00:11:44;;;;;;;;;;;20.10;99.90;;;;;;5093660;28;19935;-76
2022/09/14 00:14:09;;;;;;;;;;;19.90;99.90;;;;;;5093587;28;20365;-76
2022/09/14 00:16:36;;;;;;;;;;;20.00;99.90;;;;;;5093529;28;19912;-75
2022/09/14 00:19:06;;;;;;;;;;;20.00;99.90;;;;;;5092270;28;20284;-76
2022/09/14 00:21:33;;;;;;;;;;;20.00;99.90;;;;;;5094007;28;19989;-76
2022/09/14 00:23:58;;;;;;;;;;;20.00;99.90;;;;;;5093532;28;19997;-77
2022/09/14 00:26:25;;;;;;;;;;;20.00;99.90;;;;;;5096512;28;20325;-76
2022/09/14 00:28:52;;;;;;;;;;;20.10;99.90;;;;;;5097606;28;19932;-76
2022/09/14 00:31:18;;;;;;;;;;;20.20;99.90;;;;;;5097479;28;19908;-76
2022/09/14 00:33:46;;;;;;;;;;;20.30;99.90;;;;;;5097438;28;19919;-75
2022/09/14 00:36:13;;;;;;;;;;;20.30;99.90;;;;;;5097310;28;19957;-76
2022/09/14 00:38:40;;;;;;;;;;;20.30;99.90;;;;;;5097557;28;20389;-76
2022/09/14 00:41:08;;;;;;;;;;;20.30;99.90;;;;;;5095954;28;20367;-76
2022/09/14 00:43:50;;;;;;;;;;;20.20;99.90;;;;;;5097166;28;19912;-77
2022/09/14 00:46:15;;;;;;;;;;;20.30;99.90;;;;;;5097224;28;19920;-76
2022/09/14 00:48:41;;;;;;;;;;;20.30;99.90;;;;;;5097382;28;20379;-77
2022/09/14 00:51:06;;;;;;;;;;;20.30;99.90;;;;;;5095784;28;19915;-76
2022/09/14 00:53:32;;;;;;;;;;;20.40;99.90;;;;;;5097048;28;19916;-76
2022/09/14 00:55:57;;;;;;;;;;;20.40;99.90;;;;;;5097340;28;20279;-76
2022/09/14 00:58:23;;;;;;;;;;;20.40;99.90;;;;;;5097206;28;19912;-76
2022/09/14 01:00:49;;;;;;;;;;;20.40;99.90;;;;;;5097477;28;19915;-77
2022/09/14 01:03:14;;;;;;;;;;;20.30;99.90;;;;;;5096966;28;19908;-75
2022/09/14 01:05:52;;;;;;;;;;;20.30;99.90;;;;;;5097300;28;20014;-77
2022/09/14 01:08:28;;;;;;;;;;;20.20;99.90;;;;;;5096938;28;19920;-75
2022/09/14 01:11:04;;;;;;;;;;;20.10;99.90;;;;;;5096845;28;19911;-75
2022/09/14 01:13:29;;;;;;;;;;;20.00;99.90;;;;;;5096748;28;20330;-76
2022/09/14 01:16:03;;;;;;;;;;;19.90;99.90;;;;;;5096580;28;19912;-76
2022/09/14 01:18:34;;;;;;;;;;;19.90;99.90;;;;;;5096719;28;19908;-76
2022/09/14 01:21:18;;;;;;;;;;;19.90;99.90;;;;;;5096668;28;19912;-76
2022/09/14 01:23:53;;;;;;;;;;;19.70;99.90;;;;;;5096426;28;19912;-77
2022/09/14 01:26:37;;;;;;;;;;;19.60;99.90;;;;;;5096408;28;20030;-77
2022/09/14 01:29:18;;;;;;;;;;;19.80;99.90;;;;;;5096441;28;19908;-78
2022/09/14 01:31:50;;;;;;;;;;;19.60;99.90;;;;;;5096598;28;19947;-76
2022/09/14 01:34:18;;;;;;;;;;;19.80;99.90;;;;;;5096273;28;19909;-76
2022/09/14 01:36:47;;;;;;;;;;;20.00;99.90;;;;;;5095495;28;20011;-77
2022/09/14 01:39:13;;;;;;;;;;;20.00;99.90;;;;;;5096272;28;20318;-77
2022/09/14 01:41:41;;;;;;;;;;;19.80;99.90;;;;;;5096160;28;20419;-76
2022/09/14 01:44:12;;;;;;;;;;;19.80;99.90;;;;;;5096013;28;19908;-77
2022/09/14 01:46:43;;;;;;;;;;;19.70;99.90;;;;;;5096108;28;19920;-76
2022/09/14 01:49:15;;;;;;;;;;;19.80;99.90;;;;;;5096035;28;20372;-76
2022/09/14 01:51:52;;;;;;;;;;;19.80;99.90;;;;;;5096355;28;19955;-75
2022/09/14 01:54:35;;;;;;;;;;;19.90;99.90;;;;;;5096178;28;19908;-76
2022/09/14 01:57:01;;;;;;;;;;;20.00;99.90;;;;;;5095818;28;19959;-76
2022/09/14 01:59:32;;;;;;;;;;;19.80;99.90;;;;;;5095827;28;19989;-76
2022/09/14 02:02:01;;;;;;;;;;;19.70;99.90;;;;;;5095413;28;20281;-77
2022/09/14 02:04:35;;;;;;;;;;;19.60;99.90;;;;;;5095746;28;19908;-76
2022/09/14 02:07:01;;;;;;;;;;;19.60;99.90;;;;;;5095727;28;19909;-76
2022/09/14 02:09:27;;;;;;;;;;;19.50;99.90;;;;;;5095587;28;19908;-76
2022/09/14 02:11:54;;;;;;;;;;;19.60;99.90;;;;;;5094216;28;20269;-76
2022/09/14 02:14:20;;;;;;;;;;;19.50;99.90;;;;;;5095691;28;19934;-76
2022/09/14 02:16:46;;;;;;;;;;;19.70;99.90;;;;;;5095363;28;20266;-77
2022/09/14 02:19:12;;;;;;;;;;;19.70;99.90;;;;;;5095597;28;19955;-77
2022/09/14 02:21:38;;;;;;;;;;;19.70;99.90;;;;;;5095515;28;20368;-76
2022/09/14 02:24:04;;;;;;;;;;;19.70;99.90;;;;;;5095325;28;20007;-77
2022/09/14 02:26:30;;;;;;;;;;;19.60;99.90;;;;;;5095260;28;19944;-77
2022/09/14 02:28:56;;;;;;;;;;;19.50;99.90;;;;;;5095213;28;19950;-76
2022/09/14 02:31:34;;;;;;;;;;;19.70;99.90;;;;;;5095319;28;19908;-76
2022/09/14 02:34:12;;;;;;;;;;;19.80;99.90;;;;;;5095209;28;19915;-76
2022/09/14 02:36:40;;;;;;;;;;;19.90;99.90;;;;;;5094983;28;19913;-77
2022/09/14 02:39:21;;;;;;;;;;;19.80;99.90;;;;;;5095220;28;19909;-76
2022/09/14 02:41:53;;;;;;;;;;;19.80;99.90;;;;;;5095098;28;19974;-75
2022/09/14 02:44:37;;;;;;;;;;;19.80;99.90;;;;;;5094913;28;19908;-77
2022/09/14 02:47:23;;;;;;;;;;;19.60;99.90;;;;;;5094655;28;19973;-77
2022/09/14 02:50:07;;;;;;;;;;;19.50;99.90;;;;;;5062345;28;19908;-76
2022/09/14 02:52:37;;;;;;;;;;;19.60;99.90;;;;;;5094950;28;20368;-76
2022/09/14 02:55:08;;;;;;;;;;;19.40;99.90;;;;;;5093393;28;19908;-77
2022/09/14 02:57:53;;;;;;;;;;;19.40;99.90;;;;;;5094830;28;20384;-77
2022/09/14 03:00:19;;;;;;;;;;;19.50;99.90;;;;;;5095071;28;20291;-76
2022/09/14 03:02:45;;;;;;;;;;;19.60;99.90;;;;;;5094751;28;20002;-77
2022/09/14 03:05:10;;;;;;;;;;;19.60;99.90;;;;;;5094507;28;19994;-76
2022/09/14 03:07:36;;;;;;;;;;;19.80;99.90;;;;;;5094860;28;19908;-77
2022/09/14 03:10:02;;;;;;;;;;;19.80;99.90;;;;;;5094417;28;19915;-77
2022/09/14 03:12:27;;;;;;;;;;;19.80;99.90;;;;;;5094374;28;19911;-76
2022/09/14 03:14:53;;;;;;;;;;;19.90;99.90;;;;;;5094336;28;19912;-78
2022/09/14 03:17:18;;;;;;;;;;;19.90;99.90;;;;;;5094248;28;20049;-77
2022/09/14 03:19:44;;;;;;;;;;;19.90;99.90;;;;;;5094397;28;19908;-77
2022/09/14 03:22:09;;;;;;;;;;;20.10;99.90;;;;;;5094379;28;19909;-77
2022/09/14 03:24:35;;;;;;;;;;;20.20;99.90;;;;;;5094215;28;19973;-77
2022/09/14 03:27:01;;;;;;;;;;;20.00;99.90;;;;;;5094187;28;19908;-76
2022/09/14 03:29:26;;;;;;;;;;;19.80;99.90;;;;;;5094409;28;19915;-77
2022/09/14 03:31:52;;;;;;;;;;;19.60;99.90;;;;;;5094069;28;20292;-76
2022/09/14 03:34:17;;;;;;;;;;;19.80;99.90;;;;;;5094058;28;19908;-76
2022/09/14 03:36:43;;;;;;;;;;;19.80;99.90;;;;;;5093864;28;19961;-76
2022/09/14 03:39:08;;;;;;;;;;;19.80;99.90;;;;;;5094359;28;20376;-76
2022/09/14 03:41:34;;;;;;;;;;;19.80;99.90;;;;;;5093918;28;19912;-77
2022/09/14 03:44:00;;;;;;;;;;;19.50;99.90;;;;;;5093932;28;19909;-78
2022/09/14 03:46:25;;;;;;;;;;;19.40;99.90;;;;;;5093787;28;19921;-76
2022/09/14 03:48:52;;;;;;;;;;;19.40;99.90;;;;;;5093973;28;20391;-78
2022/09/14 03:51:18;;;;;;;;;;;19.30;99.90;;;;;;5094106;28;20372;-77
2022/09/14 03:53:44;;;;;;;;;;;19.30;99.90;;;;;;5094259;28;19919;-75
2022/09/14 03:56:11;;;;;;;;;;;19.30;99.90;;;;;;5093739;28;19919;-77
2022/09/14 03:58:36;;;;;;;;;;;19.40;99.90;;;;;;5092481;28;19914;-77
2022/09/14 04:01:06;;;;;;;;;;;19.50;99.90;;;;;;5098943;28;20288;-77
2022/09/14 04:03:31;;;;;;;;;;;19.70;99.90;;;;;;5100499;28;19908;-77
2022/09/14 04:05:57;;;;;;;;;;;19.70;99.90;;;;;;5100798;28;19915;-78
2022/09/14 04:08:23;;;;;;;;;;;19.80;99.90;;;;;;5100437;28;19908;-76
2022/09/14 04:10:48;;;;;;;;;;;19.70;99.90;;;;;;5099135;28;20327;-76
2022/09/14 04:13:14;;;;;;;;;;;19.50;99.90;;;;;;5100490;28;19942;-76
2022/09/14 04:15:40;;;;;;;;;;;19.60;99.90;;;;;;5099061;28;19912;-76
2022/09/14 04:18:05;;;;;;;;;;;19.40;99.90;;;;;;5100354;28;19908;-77
2022/09/14 04:20:31;;;;;;;;;;;19.60;99.90;;;;;;5100368;28;19908;-77
2022/09/14 04:22:57;;;;;;;;;;;19.60;99.90;;;;;;5100302;28;19919;-76
2022/09/14 04:25:22;;;;;;;;;;;19.90;99.90;;;;;;5100248;28;19962;-78
2022/09/14 04:27:49;;;;;;;;;;;19.90;99.90;;;;;;5100502;28;20355;-77
2022/09/14 04:30:14;;;;;;;;;;;19.90;99.90;;;;;;5100221;28;19912;-77
2022/09/14 04:32:40;;;;;;;;;;;20.00;99.90;;;;;;5100620;28;19908;-78
2022/09/14 04:35:06;;;;;;;;;;;19.90;99.90;;;;;;5100518;28;19908;-78
2022/09/14 04:37:32;;;;;;;;;;;20.00;99.90;;;;;;5100187;28;20353;-77
2022/09/14 04:39:57;;;;;;;;;;;20.00;99.90;;;;;;5100183;28;19915;-76
2022/09/14 04:42:23;;;;;;;;;;;20.00;99.90;;;;;;5100198;28;19935;-76
2022/09/14 04:44:49;;;;;;;;;;;19.80;99.90;;;;;;5100437;28;19915;-78
2022/09/14 04:47:14;;;;;;;;;;;19.90;99.90;;;;;;5100023;28;20368;-76
2022/09/14 04:49:40;;;;;;;;;;;20.00;99.90;;;;;;5100054;28;19908;-76
2022/09/14 04:52:05;;;;;;;;;;;19.90;99.90;;;;;;5100016;28;19915;-77
2022/09/14 04:54:31;;;;;;;;;;;19.80;99.90;;;;;;5100029;28;19908;-77
2022/09/14 04:56:56;;;;;;;;;;;19.80;99.90;;;;;;5100036;28;19916;-75
2022/09/14 04:59:22;;;;;;;;;;;19.80;99.90;;;;;;5100034;28;20437;-77
2022/09/14 05:01:48;;;;;;;;;;;19.90;99.90;;;;;;5100475;28;19908;-77
2022/09/14 05:04:13;;;;;;;;;;;19.60;99.90;;;;;;5100119;28;19995;-77
2022/09/14 05:06:40;;;;;;;;;;;19.30;99.90;;;;;;5100166;28;19908;-77
2022/09/14 05:09:12;;;;;;;;;;;19.40;99.90;;;;;;5099955;28;19908;-77
2022/09/14 05:11:37;;;;;;;;;;;19.50;99.90;;;;;;5097840;28;19915;-76
2022/09/14 05:14:03;;;;;;;;;;;19.60;99.90;;;;;;5096875;28;20284;-77
2022/09/14 05:16:33;;;;;;;;;;;19.70;99.90;;;;;;5096686;28;19912;-76
2022/09/14 05:19:00;;;;;;;;;;;19.70;99.90;;;;;;5096630;28;19908;-77
2022/09/14 05:21:26;;;;;;;;;;;19.60;99.90;;;;;;5096796;28;19908;-78
2022/09/14 05:23:53;;;;;;;;;;;19.60;99.90;;;;;;5096534;28;19912;-77
2022/09/14 05:26:19;;;;;;;;;;;19.50;99.90;;;;;;5095135;28;20011;-78
2022/09/14 05:28:48;;;;;;;;;;;19.70;99.90;;;;;;5096435;28;19940;-75
2022/09/14 05:31:15;;;;;;;;;;;19.70;99.90;;;;;;5095028;28;19916;-77
2022/09/14 05:33:41;;;;;;;;;;;19.60;99.90;;;;;;5096343;28;20368;-75
2022/09/14 05:36:07;;;;;;;;;;;19.40;99.90;;;;;;5096517;28;19918;-78
2022/09/14 05:38:34;;;;;;;;;;;19.40;99.90;;;;;;5096292;28;19915;-77
2022/09/14 05:41:00;;;;;;;;;;;19.50;99.90;;;;;;5094857;28;20407;-77
2022/09/14 05:43:26;;;;;;;;;;;19.60;99.90;;;;;;5096156;28;19908;-77
2022/09/14 05:45:52;;;;;;;;;;;19.60;99.90;;;;;;5095573;28;19916;-76
2022/09/14 05:48:18;;;;;;;;;;;19.50;99.90;;;;;;5096204;28;19919;-77
2022/09/14 05:50:43;;;;;;;;;;;19.50;99.90;;;;;;5096043;28;19919;-77
2022/09/14 05:53:09;;;;;;;;;;;19.60;99.90;;;;;;5096054;28;20372;-77
2022/09/14 05:55:34;;;;;;;;;;;19.60;99.90;;;;;;5095661;28;19908;-77
2022/09/14 05:58:00;;;;;;;;;;;19.70;99.90;;;;;;5095814;28;19915;-77
2022/09/14 06:00:26;;;;;;;;;;;19.70;99.90;;;;;;5096458;28;19954;-77
2022/09/14 06:02:53;;;;;;;;;;;19.70;99.90;;;;;;5094070;28;19966;-78
2022/09/14 06:05:19;;;;;;;;;;;19.80;99.90;;;;;;5095711;28;19954;-77
2022/09/14 06:07:44;;;;;;;;;;;19.90;99.90;;;;;;5095882;28;20260;-76
2022/09/14 06:10:10;;;;;;;;;;;19.80;99.90;;;;;;5095728;28;19996;-77
2022/09/14 06:12:36;;;;;;;;;;;19.70;99.90;;;;;;5095634;28;20368;-77
2022/09/14 06:15:02;;;;;;;;;;;19.80;99.90;;;;;;5095532;28;19915;-76
2022/09/14 06:17:28;;;;;;;;;;;19.70;99.90;;;;;;5095343;28;20384;-76
2022/09/14 06:19:53;;;;;;;;;;;19.70;99.90;;;;;;5095833;28;19969;-76
2022/09/14 06:22:19;;;;;;;;;;;19.70;99.90;;;;;;5095718;28;19944;-78
2022/09/14 06:24:45;;;;;;;;;;;19.60;99.90;;;;;;5093919;28;19908;-77
2022/09/14 06:27:11;;;;;;;;;;;19.70;99.90;;;;;;5095303;28;19915;-78
2022/09/14 06:29:36;;;;;;;;;;;19.70;99.90;;;;;;5095250;28;19908;-77
2022/09/14 06:32:02;;;;;;;;;;;19.70;99.90;;;;;;5095164;28;19908;-77
2022/09/14 06:34:29;;;;;;;;;;;19.60;99.90;;;;;;5095133;28;19908;-76
2022/09/14 06:36:55;;;;;;;;;;;19.50;99.90;;;;;;5094986;28;19970;-76
2022/09/14 06:39:20;;;;;;;;;;;19.60;99.90;;;;;;5093736;28;20422;-76
2022/09/14 06:41:46;;;;;;;;;;;19.50;99.90;;;;;;5094943;28;19908;-75
2022/09/14 06:44:12;;;;;;;;;;;19.30;99.90;;;;;;5095370;28;19990;-76
2022/09/14 06:46:37;;;;;;;;;;;19.30;99.90;;;;;;5093424;28;20366;-76
2022/09/14 06:49:07;;;;;;;;;;;19.50;99.90;;;;;;5094927;28;20444;-78
2022/09/14 06:51:34;;;;;;;;;;;19.60;99.90;;;;;;5094831;28;19908;-78
2022/09/14 06:54:00;;;;;;;;;;;19.60;99.90;;;;;;5093480;28;20323;-77
2022/09/14 06:56:35;;;;;;;;;;;19.70;99.90;;;;;;5094670;28;19916;-78
2022/09/14 06:59:01;;;;;;;;;;;19.80;99.90;;;;;;5094785;28;19908;-78
2022/09/14 07:01:28;;;;;;;;;;;19.90;99.90;;;;;;5095140;28;19908;-78
2022/09/14 07:03:54;;;;;;;;;;;20.20;99.90;;;;;;5094589;28;20017;-78
2022/09/14 07:06:21;;;;;;;;;;;20.70;99.90;;;;;;5094563;28;19915;-78
2022/09/14 07:08:47;;;;;;;;;;;21.00;99.90;;;;;;5094507;28;19908;-77
2022/09/14 07:11:14;;;;;;;;;;;21.20;99.90;;;;;;5094466;28;19912;-77
2022/09/14 07:13:40;;;;;;;;;;;21.40;99.90;;;;;;5094432;28;20390;-77
2022/09/14 07:16:06;;;;;;;;;;;21.80;99.90;;;;;;5094327;28;19912;-79
2022/09/14 07:18:33;;;;;;;;;;;22.20;99.90;;;;;;5094671;28;19908;-78
2022/09/14 07:21:06;;;;;;;;;;;22.60;99.90;;;;;;5094517;28;19961;-77
2022/09/14 07:23:32;;;;;;;;;;;22.80;99.90;;;;;;5094270;28;19908;-78
2022/09/14 07:26:06;;;;;;;;;;;23.00;99.90;;;;;;5094250;28;20357;-77
2022/09/14 07:28:32;;;;;;;;;;;23.10;99.90;;;;;;5092657;28;19908;-78
2022/09/14 07:30:58;;;;;;;;;;;23.40;99.90;;;;;;5094180;28;20380;-77
2022/09/14 07:33:23;;;;;;;;;;;23.70;99.90;;;;;;5094154;28;20023;-79
2022/09/14 07:35:49;;;;;;;;;;;23.90;99.90;;;;;;5093411;28;19912;-77
2022/09/14 07:38:15;;;;;;;;;;;24.60;99.90;;;;;;5094065;28;20444;-79
2022/09/14 07:40:40;;;;;;;;;;;25.40;99.90;;;;;;5093999;28;20288;-79
2022/09/14 07:43:06;;;;;;;;;;;25.70;99.90;;;;;;5093990;28;19909;-77
2022/09/14 07:45:33;;;;;;;;;;;25.90;99.90;;;;;;5093679;28;19909;-77
2022/09/14 07:47:59;;;;;;;;;;;26.30;99.90;;;;;;5094052;28;19908;-77
2022/09/14 07:50:30;;;;;;;;;;;27.00;99.90;;;;;;5094041;28;19983;-78
2022/09/14 07:52:56;;;;;;;;;;;27.10;99.90;;;;;;5093998;28;19908;-77
2022/09/14 07:55:21;;;;;;;;;;;27.40;99.90;;;;;;5093792;28;19915;-78
2022/09/14 07:57:47;;;;;;;;;;;27.40;99.90;;;;;;5094065;28;20453;-77
2022/09/14 08:00:13;;;;;;;;;;;27.80;99.90;;;;;;5093881;28;19909;-77
2022/09/14 08:02:39;;;;;;;;;;;29.50;99.90;;;;;;5094483;28;19909;-78
2022/09/14 08:05:05;;;;;;;;;;;31.30;99.90;;;;;;5093689;28;19914;-78
2022/09/14 08:07:30;;;;;;;;;;;32.20;99.90;;;;;;5093705;28;19908;-79
2022/09/14 08:09:56;;;;;;;;;;;32.70;99.90;;;;;;5093948;28;19919;-79
2022/09/14 08:12:22;;;;;;;;;;;33.10;99.90;;;;;;5093651;28;20003;-77
2022/09/14 08:14:49;;;;;;;;;;;33.60;99.90;;;;;;5093740;28;19956;-79
2022/09/14 08:17:15;;;;;;;;;;;34.00;99.90;;;;;;5093455;28;19916;-77
2022/09/14 08:19:41;;;;;;;;;;;34.10;99.90;;;;;;5093639;28;19909;-76
2022/09/14 08:22:08;;;;;;;;;;;34.00;99.90;;;;;;5093597;28;19912;-75
2022/09/14 08:24:33;;;;;;;;;;;34.00;99.90;;;;;;5093591;28;19912;-77
2022/09/14 08:26:59;;;;;;;;;;;34.20;99.90;;;;;;5093551;28;19973;-76
2022/09/14 08:29:32;;;;;;;;;;;34.90;95.40;;;;;;5093522;28;19915;-77
2022/09/14 08:32:08;;;;;;;;;;;35.10;99.90;;;;;;5093699;28;20295;-76
2022/09/14 08:34:39;;;;;;;;;;;35.70;99.90;;;;;;5093832;28;19908;-77
2022/09/14 08:37:05;;;;;;;;;;;35.60;94.80;;;;;;5093460;28;20354;-74
2022/09/14 08:39:31;;;;;;;;;;;37.00;95.40;;;;;;5093404;28;19995;-77
2022/09/14 08:41:58;;;;;;;;;;;37.00;96.90;;;;;;5093391;28;19912;-76
2022/09/14 08:44:24;;;;;;;;;;;37.10;95.20;;;;;;5093474;28;19954;-74
2022/09/14 08:47:15;;;;;;;;;;;37.20;91.40;;;;;;5092191;28;19920;-77
2022/09/14 08:49:50;;;;;;;;;;;34.80;80.40;;;;;;5097625;28;20262;-76
2022/09/14 08:52:27;;;;;;;;;;;33.20;86.00;;;;;;5097118;28;19915;-78
2022/09/14 08:54:54;;;;;;;;;;;33.00;87.90;;;;;;5097114;28;19908;-76
2022/09/14 08:57:52;;;;;;;;;;;33.30;88.70;;;;;;5096987;28;19965;-78
2022/09/14 09:00:21;;;;;;;;;;;33.90;89.70;;;;;;5063022;28;19908;-76
2022/09/14 09:03:16;;;;;;;;;;;34.80;85.90;;;;;;5097523;28;19943;-76
2022/09/14 09:05:47;;;;;;;;;;;34.70;80.60;;;;;;5096815;28;19908;-76
2022/09/14 09:08:18;;;;;;;;;;;34.70;82.00;;;;;;5097017;28;20364;-76
2022/09/14 09:10:45;;;;;;;;;;;35.90;83.70;;;;;;5096766;28;19919;-75
2022/09/14 09:13:12;;;;;;;;;;;35.70;78.20;;;;;;5096752;28;19931;-77
2022/09/14 09:15:44;;;;;;;;;;;34.40;78.30;;;;;;5096825;28;20444;-77
2022/09/14 09:18:31;;;;;;;;;;;34.50;82.80;;;;;;5096635;28;19948;-78
2022/09/14 09:21:03;;;;;;;;;;;36.00;80.70;;;;;;5096671;28;19912;-76
2022/09/14 09:23:31;;;;;;;;;;;36.50;75.40;;;;;;5096551;28;19908;-76
2022/09/14 09:26:13;;;;;;;;;;;37.20;79.30;;;;;;5096527;28;19913;-76
2022/09/14 09:28:48;;;;;;;;;;;35.80;74.20;;;;;;5096456;28;19956;-74
2022/09/14 09:31:15;;;;;;;;;;;34.30;77.10;;;;;;5096575;28;20379;-75
2022/09/14 09:33:40;;;;;;;;;;;33.70;78.10;;;;;;5096386;28;19908;-77
2022/09/14 09:36:07;;;;;;;;;;;34.10;80.80;;;;;;5096356;28;19912;-77
2022/09/14 09:38:33;;;;;;;;;;;34.80;80.10;;;;;;5096264;28;19908;-76
2022/09/14 09:41:07;;;;;;;;;;;34.40;77.50;;;;;;5096174;28;19958;-77
2022/09/14 09:43:33;;;;;;;;;;;33.90;78.60;;;;;;5096025;28;19908;-78
2022/09/14 09:46:03;;;;;;;;;;;35.00;79.90;;;;;;5095955;28;19942;-76
2022/09/14 09:48:31;;;;;;;;;;;36.50;75.10;;;;;;5096169;28;19950;-77
2022/09/14 09:50:59;;;;;;;;;;;38.30;70.00;;;;;;5095504;28;20287;-76
2022/09/14 09:53:25;;;;;;;;;;;38.50;68.10;;;;;;5095902;28;20004;-76
2022/09/14 09:55:50;;;;;;;;;;;37.00;67.00;;;;;;5096148;28;19922;-76
2022/09/14 09:58:22;;;;;;;;;;;35.20;70.10;;;;;;5095435;28;19946;-78
2022/09/14 10:01:01;;;;;;;;;;;34.90;73.10;;;;;;5095697;28;19963;-76
2022/09/14 10:03:29;;;;;;;;;;;34.50;73.90;;;;;;5096120;28;19999;-77
2022/09/14 10:06:01;;;;;;;;;;;34.80;71.00;;;;;;5096016;28;20003;-78
2022/09/14 10:08:27;;;;;;;;;;;35.90;71.60;;;;;;5095982;28;19915;-76
2022/09/14 10:10:53;;;;;;;;;;;36.10;72.50;;;;;;5095676;28;19916;-75
2022/09/14 10:13:26;;;;;;;;;;;35.50;70.30;;;;;;5095657;28;19912;-78
2022/09/14 10:16:12;;;;;;;;;;;34.40;71.40;;;;;;5093895;28;19919;-78
2022/09/14 10:18:42;;;;;;;;;;;33.80;73.60;;;;;;5093713;28;20440;-75
2022/09/14 10:21:08;;;;;;;;;;;34.00;73.90;;;;;;5095365;28;20260;-77
2022/09/14 10:23:37;;;;;;;;;;;33.70;74.40;;;;;;5095399;28;19909;-78
2022/09/14 10:26:09;;;;;;;;;;;33.10;74.40;;;;;;5095336;28;19968;-75
2022/09/14 10:28:35;;;;;;;;;;;34.00;77.30;;;;;;5095456;28;19919;-78
2022/09/14 10:31:10;;;;;;;;;;;35.00;74.70;;;;;;5095292;28;19908;-77
2022/09/14 10:33:37;;;;;;;;;;;36.20;73.30;;;;;;5095178;28;20398;-77
2022/09/14 10:36:12;;;;;;;;;;;37.70;69.60;;;;;;5093811;28;19922;-77
2022/09/14 10:38:38;;;;;;;;;;;39.10;68.50;;;;;;5095356;28;19912;-77
2022/09/14 10:41:08;;;;;;;;;;;41.60;66.20;;;;;;5094985;28;19915;-76
2022/09/14 10:43:39;;;;;;;;;;;42.80;64.40;;;;;;5095047;28;19908;-80
2022/09/14 10:46:11;;;;;;;;;;;44.10;59.20;;;;;;5094960;28;20288;-78
2022/09/14 10:48:54;;;;;;;;;;;42.70;57.10;;;;;;5095082;28;19919;-76
2022/09/14 10:51:20;;;;;;;;;;;42.40;57.00;;;;;;5094837;28;19912;-79
2022/09/14 10:53:51;;;;;;;;;;;42.40;55.90;;;;;;5094764;28;19934;-80
2022/09/14 10:56:40;;;;;;;;;;;41.20;56.00;;;;;;5094690;28;20333;-77
2022/09/14 10:59:25;;;;;;;;;;;39.80;57.90;;;;;;5055946;28;20379;-79
2022/09/14 11:01:53;;;;;;;;;;;38.00;58.80;;;;;;5095427;28;19951;-77
2022/09/14 11:04:24;;;;;;;;;;;36.90;61.00;;;;;;5093102;28;19916;-77
2022/09/14 11:06:49;;;;;;;;;;;36.30;62.40;;;;;;5094354;28;19908;-75
2022/09/14 11:09:33;;;;;;;;;;;36.30;62.90;;;;;;5094024;28;20078;-76
2022/09/14 11:12:10;;;;;;;;;;;35.80;64.60;;;;;;5094365;28;19912;-76
2022/09/14 11:15:05;;;;;;;;;;;35.10;65.50;;;;;;5094607;28;19911;-78
2022/09/14 11:17:32;;;;;;;;;;;36.80;64.70;;;;;;5080745;28;20357;-77
2022/09/14 11:20:18;;;;;;;;;;;40.10;62.20;;;;;;5094493;28;19915;-77
2022/09/14 11:23:13;;;;;;;;;;;42.20;60.40;;;;;;5094471;28;20272;-77
2022/09/14 11:25:38;;;;;;;;;;;44.10;57.70;;;;;;5080714;28;19908;-79
2022/09/14 11:28:19;;;;;;;;;;;43.70;54.60;;;;;;5094191;28;19919;-78
2022/09/14 11:30:51;;;;;;;;;;;43.10;53.10;;;;;;5094217;28;19912;-77
2022/09/14 11:33:22;;;;;;;;;;;41.10;55.00;;;;;;5094157;28;19908;-77
2022/09/14 11:35:51;;;;;;;;;;;41.70;55.40;;;;;;5093966;28;20335;-78
2022/09/14 11:38:23;;;;;;;;;;;41.60;55.60;;;;;;5094062;28;20383;-78
2022/09/14 11:40:52;;;;;;;;;;;41.30;55.20;;;;;;5094116;28;19958;-79
2022/09/14 11:43:23;;;;;;;;;;;40.60;55.50;;;;;;5094065;28;19952;-79
2022/09/14 11:45:56;;;;;;;;;;;40.00;55.90;;;;;;5093730;28;19909;-77
2022/09/14 11:48:22;;;;;;;;;;;39.20;56.00;;;;;;5094083;28;20383;-76
2022/09/14 11:50:50;;;;;;;;;;;38.70;56.80;;;;;;5093930;28;19947;-76
2022/09/14 11:53:17;;;;;;;;;;;38.30;57.50;;;;;;5093873;28;19915;-77
2022/09/14 11:55:45;;;;;;;;;;;37.50;59.00;;;;;;5093944;28;19915;-77
2022/09/14 11:58:21;;;;;;;;;;;39.20;58.80;;;;;;5093963;28;19961;-79
2022/09/14 12:01:19;;;;;;;;;;;42.00;55.50;;;;;;5093781;28;20329;-79
2022/09/14 12:03:58;;;;;;;;;;;44.10;52.80;;;;;;5059843;28;19973;-78
2022/09/14 12:06:27;;;;;;;;;;;46.60;51.80;;;;;;5093805;28;20061;-80
2022/09/14 12:08:52;;;;;;;;;;;47.80;48.80;;;;;;5093726;28;19999;-79
2022/09/14 12:11:32;;;;;;;;;;;44.80;47.30;;;;;;5094148;28;19955;-79
2022/09/14 12:14:16;;;;;;;;;;;42.90;50.40;;;;;;5093972;28;19912;-76
2022/09/14 12:17:14;;;;;;;;;;;43.00;50.80;;;;;;5092242;28;20296;-78
2022/09/14 12:19:40;;;;;;;;;;;42.70;51.00;;;;;;5059859;28;19908;-77
2022/09/14 12:22:26;;;;;;;;;;;42.60;51.40;;;;;;5096314;28;20265;-77
2022/09/14 12:25:01;;;;;;;;;;;43.50;50.10;;;;;;5097159;28;19931;-77
2022/09/14 12:27:28;;;;;;;;;;;43.00;50.00;;;;;;5097640;28;20417;-78
2022/09/14 12:29:54;;;;;;;;;;;43.10;49.80;;;;;;5097864;28;19965;-77
2022/09/14 12:32:24;;;;;;;;;;;44.80;50.30;;;;;;5097526;28;19908;-77
2022/09/14 12:35:10;;;;;;;;;;;48.30;47.40;;;;;;5097464;28;19958;-80
2022/09/14 12:37:35;;;;;;;;;;;48.90;45.00;;;;;;5097340;28;20002;-80
2022/09/14 12:40:27;;;;;;;;;;;51.20;43.70;;;;;;5097561;28;19947;-81
2022/09/14 12:42:53;;;;;;;;;;;51.10;42.70;;;;;;5094179;28;19908;-77
2022/09/14 12:45:37;;;;;;;;;;;49.30;42.80;;;;;;5097701;28;19908;-78
2022/09/14 12:48:03;;;;;;;;;;;49.90;43.30;;;;;;5097554;28;20343;-79
2022/09/14 12:50:31;;;;;;;;;;;50.30;41.00;;;;;;5097386;28;19908;-79
2022/09/14 12:53:13;;;;;;;;;;;48.20;43.10;;;;;;5095830;28;19951;-80
2022/09/14 12:55:44;;;;;;;;;;;45.10;43.20;;;;;;5097530;28;19912;-77
2022/09/14 12:58:16;;;;;;;;;;;40.30;46.50;;;;;;5097175;28;19908;-78
2022/09/14 13:01:11;;;;;;;;;;;39.00;50.80;;;;;;5097174;28;19912;-76
2022/09/14 13:03:42;;;;;;;;;;;39.50;48.70;;;;;;5083943;28;19908;-78
2022/09/14 13:06:12;;;;;;;;;;;42.90;47.60;;;;;;5097046;28;19912;-77
2022/09/14 13:08:38;;;;;;;;;;;46.50;46.40;;;;;;5096950;28;20029;-77
2022/09/14 13:11:05;;;;;;;;;;;42.70;45.70;;;;;;5096815;28;19983;-78
2022/09/14 13:13:32;;;;;;;;;;;40.50;48.80;;;;;;5097286;28;19908;-79
2022/09/14 13:15:58;;;;;;;;;;;42.90;49.00;;;;;;5096597;28;19957;-77
2022/09/14 13:18:26;;;;;;;;;;;41.50;47.40;;;;;;5096673;28;20015;-78
2022/09/14 13:20:52;;;;;;;;;;;39.50;48.90;;;;;;5096591;28;20377;-78
2022/09/14 13:23:19;;;;;;;;;;;38.70;51.00;;;;;;5096561;28;20391;-76
2022/09/14 13:25:46;;;;;;;;;;;38.10;53.10;;;;;;5096439;28;20334;-77
2022/09/14 13:28:14;;;;;;;;;;;39.30;52.40;;;;;;5095298;28;19934;-77
2022/09/14 13:30:40;;;;;;;;;;;41.30;51.10;;;;;;5096418;28;19908;-79
2022/09/14 13:33:06;;;;;;;;;;;43.30;48.80;;;;;;5095532;28;19941;-79
2022/09/14 13:35:37;;;;;;;;;;;42.70;47.00;;;;;;5096408;28;19931;-78
2022/09/14 13:38:07;;;;;;;;;;;42.50;47.70;;;;;;5096810;28;19915;-78
2022/09/14 13:40:33;;;;;;;;;;;42.30;48.40;;;;;;5096438;28;19958;-78
2022/09/14 13:42:59;;;;;;;;;;;45.20;46.90;;;;;;5096318;28;19908;-78
2022/09/14 13:45:25;;;;;;;;;;;48.20;44.60;;;;;;5096123;28;19912;-77
2022/09/14 13:47:52;;;;;;;;;;;46.40;42.70;;;;;;5094310;28;20330;-78
2022/09/14 13:50:18;;;;;;;;;;;41.10;46.60;;;;;;5096115;28;20006;-78
2022/09/14 13:52:44;;;;;;;;;;;38.10;49.90;;;;;;5096080;28;20365;-78
2022/09/14 13:55:17;;;;;;;;;;;35.60;52.60;;;;;;5095972;28;19915;-76
2022/09/14 13:58:01;;;;;;;;;;;34.10;55.80;;;;;;5095857;28;19915;-77
2022/09/14 14:00:27;;;;;;;;;;;34.30;57.10;;;;;;5095812;28;19908;-78
2022/09/14 14:02:57;;;;;;;;;;;39.30;54.50;;;;;;5096421;28;19915;-78
2022/09/14 14:05:28;;;;;;;;;;;43.70;48.90;;;;;;5095925;28;20383;-77
2022/09/14 14:07:55;;;;;;;;;;;43.90;46.10;;;;;;5096075;28;20280;-76
2022/09/14 14:10:25;;;;;;;;;;;38.20;49.60;;;;;;5095868;28;19908;-77
2022/09/14 14:12:51;;;;;;;;;;;35.20;55.40;;;;;;5056444;28;20010;-77
2022/09/14 14:15:17;;;;;;;;;;;36.50;54.80;;;;;;5074895;28;19963;-79
2022/09/14 14:17:42;;;;;;;;;;;35.40;56.30;;;;;;5075201;28;19909;-78
2022/09/14 14:20:27;;;;;;;;;;;37.00;58.20;;;;;;5074677;28;19908;-78
2022/09/14 14:22:56;;;;;;;;;;;38.00;53.20;;;;;;5088457;28;19908;-76
2022/09/14 14:25:38;;;;;;;;;;;36.70;56.80;;;;;;5095049;28;19908;-77
2022/09/14 14:28:05;;;;;;;;;;;38.50;55.00;;;;;;5094893;28;19912;-78
2022/09/14 14:30:35;;;;;;;;;;;37.20;53.80;;;;;;5094848;28;19917;-78